sensor_id;sensor_type;location;lat;lon;timestamp;P1;durP1;ratioP1;P2;durP2;ratioP2
62419;SDS011;48460;51.616;5.426;2022-09-29T00:00:09;6.57;;;4.63;;
62419;SDS011;48460;51.616;5.426;2022-09-29T00:02:36;8.93;;;4.68;;
62419;SDS011;48460;51.616;5.426;2022-09-29T00:05:01;8.18;;;4.72;;
62419;SDS011;48460;51.616;5.426;2022-09-29T00:07:27;8.23;;;5.07;;
62419;SDS011;48460;51.616;5.426;2022-09-29T00:09:53;8.25;;;4.75;;
62419;SDS011;48460;51.616;5.426;2022-09-29T00:12:19;8.43;;;5.00;;
62419;SDS011;48460;51.616;5.426;2022-09-29T00:14:44;8.10;;;5.10;;
62419;SDS011;48460;51.616;5.426;2022-09-29T00:17:12;8.35;;;4.80;;
62419;SDS011;48460;51.616;5.426;2022-09-29T00:19:39;8.35;;;5.22;;
62419;SDS011;48460;51.616;5.426;2022-09-29T00:22:05;6.32;;;4.75;;
62419;SDS011;48460;51.616;5.426;2022-09-29T00:24:33;8.63;;;5.28;;
62419;SDS011;48460;51.616;5.426;2022-09-29T00:26:59;9.65;;;5.85;;
62419;SDS011;48460;51.616;5.426;2022-09-29T00:29:24;8.85;;;5.72;;
62419;SDS011;48460;51.616;5.426;2022-09-29T00:31:50;7.95;;;5.82;;
62419;SDS011;48460;51.616;5.426;2022-09-29T00:34:16;7.80;;;5.35;;
62419;SDS011;48460;51.616;5.426;2022-09-29T00:36:41;9.68;;;5.60;;
62419;SDS011;48460;51.616;5.426;2022-09-29T00:39:07;10.43;;;5.70;;
62419;SDS011;48460;51.616;5.426;2022-09-29T00:41:34;8.75;;;5.40;;
62419;SDS011;48460;51.616;5.426;2022-09-29T00:46:45;7.68;;;5.28;;
62419;SDS011;48460;51.616;5.426;2022-09-29T00:51:58;9.48;;;5.50;;
62419;SDS011;48460;51.616;5.426;2022-09-29T00:54:27;8.77;;;5.32;;
62419;SDS011;48460;51.616;5.426;2022-09-29T00:56:56;8.20;;;5.68;;
62419;SDS011;48460;51.616;5.426;2022-09-29T00:59:45;6.70;;;5.00;;
62419;SDS011;48460;51.616;5.426;2022-09-29T01:02:16;9.63;;;6.05;;
62419;SDS011;48460;51.616;5.426;2022-09-29T01:04:44;11.38;;;5.93;;
62419;SDS011;48460;51.616;5.426;2022-09-29T01:07:12;9.50;;;6.38;;
62419;SDS011;48460;51.616;5.426;2022-09-29T01:09:38;8.82;;;6.22;;
62419;SDS011;48460;51.616;5.426;2022-09-29T01:12:05;11.15;;;6.53;;
62419;SDS011;48460;51.616;5.426;2022-09-29T01:14:32;11.15;;;6.55;;
62419;SDS011;48460;51.616;5.426;2022-09-29T01:16:59;9.57;;;6.13;;
62419;SDS011;48460;51.616;5.426;2022-09-29T01:46:01;13.30;;;6.10;;
62419;SDS011;48460;51.616;5.426;2022-09-29T01:51:54;9.75;;;6.00;;
62419;SDS011;48460;51.616;5.426;2022-09-29T02:13:54;13.05;;;6.95;;
62419;SDS011;48460;51.616;5.426;2022-09-29T02:20:34;13.80;;;7.28;;
62419;SDS011;48460;51.616;5.426;2022-09-29T02:23:00;12.65;;;8.20;;
62419;SDS011;48460;51.616;5.426;2022-09-29T02:25:25;11.70;;;7.82;;
62419;SDS011;48460;51.616;5.426;2022-09-29T02:27:51;12.45;;;8.05;;
62419;SDS011;48460;51.616;5.426;2022-09-29T02:30:17;10.95;;;7.82;;
62419;SDS011;48460;51.616;5.426;2022-09-29T02:32:45;12.63;;;8.60;;
62419;SDS011;48460;51.616;5.426;2022-09-29T02:35:12;14.82;;;8.35;;
62419;SDS011;48460;51.616;5.426;2022-09-29T02:40:31;12.00;;;7.93;;
62419;SDS011;48460;51.616;5.426;2022-09-29T02:51:46;13.10;;;8.13;;
62419;SDS011;48460;51.616;5.426;2022-09-29T02:59:43;11.35;;;7.60;;
62419;SDS011;48460;51.616;5.426;2022-09-29T03:02:25;11.27;;;8.27;;
62419;SDS011;48460;51.616;5.426;2022-09-29T03:04:52;12.75;;;7.85;;
62419;SDS011;48460;51.616;5.426;2022-09-29T03:07:18;11.35;;;7.78;;
62419;SDS011;48460;51.616;5.426;2022-09-29T03:09:44;13.75;;;8.30;;
62419;SDS011;48460;51.616;5.426;2022-09-29T03:12:10;11.60;;;7.97;;
62419;SDS011;48460;51.616;5.426;2022-09-29T03:14:36;11.48;;;7.82;;
62419;SDS011;48460;51.616;5.426;2022-09-29T03:17:01;12.45;;;7.82;;
62419;SDS011;48460;51.616;5.426;2022-09-29T03:19:27;13.73;;;7.70;;
62419;SDS011;48460;51.616;5.426;2022-09-29T03:21:53;13.80;;;8.27;;
62419;SDS011;48460;51.616;5.426;2022-09-29T03:24:18;11.43;;;7.70;;
62419;SDS011;48460;51.616;5.426;2022-09-29T03:26:46;15.13;;;7.97;;
62419;SDS011;48460;51.616;5.426;2022-09-29T03:29:12;12.98;;;8.13;;
62419;SDS011;48460;51.616;5.426;2022-09-29T03:31:40;12.55;;;8.02;;
62419;SDS011;48460;51.616;5.426;2022-09-29T03:34:06;10.90;;;7.68;;
62419;SDS011;48460;51.616;5.426;2022-09-29T03:36:31;12.73;;;8.30;;
62419;SDS011;48460;51.616;5.426;2022-09-29T03:38:56;12.13;;;8.02;;
62419;SDS011;48460;51.616;5.426;2022-09-29T03:41:22;13.93;;;8.82;;
62419;SDS011;48460;51.616;5.426;2022-09-29T03:43:48;12.65;;;8.45;;
62419;SDS011;48460;51.616;5.426;2022-09-29T03:46:13;13.15;;;8.40;;
62419;SDS011;48460;51.616;5.426;2022-09-29T03:48:38;12.73;;;8.32;;
62419;SDS011;48460;51.616;5.426;2022-09-29T03:51:05;12.60;;;8.20;;
62419;SDS011;48460;51.616;5.426;2022-09-29T03:53:32;12.20;;;8.23;;
62419;SDS011;48460;51.616;5.426;2022-09-29T03:56:01;12.93;;;8.40;;
62419;SDS011;48460;51.616;5.426;2022-09-29T03:58:27;12.73;;;7.80;;
62419;SDS011;48460;51.616;5.426;2022-09-29T04:00:53;12.38;;;8.13;;
62419;SDS011;48460;51.616;5.426;2022-09-29T04:03:19;13.25;;;8.07;;
62419;SDS011;48460;51.616;5.426;2022-09-29T04:05:45;10.85;;;7.72;;
62419;SDS011;48460;51.616;5.426;2022-09-29T04:08:11;10.57;;;6.72;;
62419;SDS011;48460;51.616;5.426;2022-09-29T04:10:37;13.50;;;7.22;;
62419;SDS011;48460;51.616;5.426;2022-09-29T04:13:03;9.40;;;6.82;;
62419;SDS011;48460;51.616;5.426;2022-09-29T04:15:29;10.15;;;7.38;;
62419;SDS011;48460;51.616;5.426;2022-09-29T04:17:55;8.45;;;6.68;;
62419;SDS011;48460;51.616;5.426;2022-09-29T04:20:21;10.38;;;7.55;;
62419;SDS011;48460;51.616;5.426;2022-09-29T04:22:46;12.90;;;7.35;;
62419;SDS011;48460;51.616;5.426;2022-09-29T04:25:12;13.82;;;8.27;;
62419;SDS011;48460;51.616;5.426;2022-09-29T04:27:39;13.13;;;7.70;;
62419;SDS011;48460;51.616;5.426;2022-09-29T04:30:08;12.60;;;8.45;;
62419;SDS011;48460;51.616;5.426;2022-09-29T04:32:37;11.90;;;8.57;;
62419;SDS011;48460;51.616;5.426;2022-09-29T04:35:03;17.15;;;8.05;;
62419;SDS011;48460;51.616;5.426;2022-09-29T04:37:29;13.85;;;8.65;;
62419;SDS011;48460;51.616;5.426;2022-09-29T04:39:55;12.48;;;8.50;;
62419;SDS011;48460;51.616;5.426;2022-09-29T04:42:21;13.18;;;8.00;;
62419;SDS011;48460;51.616;5.426;2022-09-29T04:44:46;15.00;;;8.90;;
62419;SDS011;48460;51.616;5.426;2022-09-29T04:47:12;12.30;;;8.05;;
62419;SDS011;48460;51.616;5.426;2022-09-29T04:49:38;12.68;;;8.38;;
62419;SDS011;48460;51.616;5.426;2022-09-29T04:52:03;12.95;;;7.80;;
62419;SDS011;48460;51.616;5.426;2022-09-29T04:54:34;14.15;;;8.48;;
62419;SDS011;48460;51.616;5.426;2022-09-29T04:56:59;17.20;;;8.32;;
62419;SDS011;48460;51.616;5.426;2022-09-29T04:59:26;13.02;;;8.55;;
62419;SDS011;48460;51.616;5.426;2022-09-29T05:01:52;14.88;;;8.25;;
62419;SDS011;48460;51.616;5.426;2022-09-29T05:04:17;13.38;;;8.35;;
62419;SDS011;48460;51.616;5.426;2022-09-29T05:06:46;12.13;;;8.18;;
62419;SDS011;48460;51.616;5.426;2022-09-29T05:09:12;12.40;;;7.82;;
62419;SDS011;48460;51.616;5.426;2022-09-29T05:11:41;16.33;;;8.32;;
62419;SDS011;48460;51.616;5.426;2022-09-29T05:14:06;12.98;;;8.38;;
62419;SDS011;48460;51.616;5.426;2022-09-29T05:16:32;12.40;;;8.68;;
62419;SDS011;48460;51.616;5.426;2022-09-29T05:18:57;14.70;;;7.78;;
62419;SDS011;48460;51.616;5.426;2022-09-29T05:21:23;12.32;;;7.97;;
62419;SDS011;48460;51.616;5.426;2022-09-29T05:23:51;11.88;;;8.18;;
62419;SDS011;48460;51.616;5.426;2022-09-29T05:26:16;11.32;;;8.23;;
62419;SDS011;48460;51.616;5.426;2022-09-29T05:28:43;11.95;;;7.88;;
62419;SDS011;48460;51.616;5.426;2022-09-29T05:31:09;13.45;;;8.02;;
62419;SDS011;48460;51.616;5.426;2022-09-29T05:33:35;10.57;;;7.82;;
62419;SDS011;48460;51.616;5.426;2022-09-29T05:36:07;12.20;;;8.02;;
62419;SDS011;48460;51.616;5.426;2022-09-29T05:38:35;12.18;;;7.70;;
62419;SDS011;48460;51.616;5.426;2022-09-29T05:41:04;10.77;;;8.13;;
62419;SDS011;48460;51.616;5.426;2022-09-29T05:43:31;13.75;;;7.85;;
62419;SDS011;48460;51.616;5.426;2022-09-29T05:46:00;12.82;;;8.50;;
62419;SDS011;48460;51.616;5.426;2022-09-29T05:48:26;12.05;;;8.05;;
62419;SDS011;48460;51.616;5.426;2022-09-29T05:50:54;15.35;;;8.40;;
62419;SDS011;48460;51.616;5.426;2022-09-29T05:53:23;10.57;;;7.95;;
62419;SDS011;48460;51.616;5.426;2022-09-29T05:55:54;13.10;;;8.30;;
62419;SDS011;48460;51.616;5.426;2022-09-29T05:58:19;12.43;;;8.20;;
62419;SDS011;48460;51.616;5.426;2022-09-29T06:00:44;14.52;;;9.00;;
62419;SDS011;48460;51.616;5.426;2022-09-29T06:03:10;14.73;;;8.82;;
62419;SDS011;48460;51.616;5.426;2022-09-29T06:05:38;14.60;;;10.00;;
62419;SDS011;48460;51.616;5.426;2022-09-29T06:08:05;12.77;;;9.07;;
62419;SDS011;48460;51.616;5.426;2022-09-29T06:10:31;15.32;;;8.52;;
62419;SDS011;48460;51.616;5.426;2022-09-29T06:12:57;14.38;;;9.18;;
62419;SDS011;48460;51.616;5.426;2022-09-29T06:15:22;15.48;;;9.30;;
62419;SDS011;48460;51.616;5.426;2022-09-29T06:17:55;12.10;;;9.07;;
62419;SDS011;48460;51.616;5.426;2022-09-29T06:20:21;18.73;;;9.88;;
62419;SDS011;48460;51.616;5.426;2022-09-29T06:22:46;14.88;;;8.98;;
62419;SDS011;48460;51.616;5.426;2022-09-29T06:25:12;16.80;;;9.80;;
62419;SDS011;48460;51.616;5.426;2022-09-29T06:27:38;16.55;;;9.80;;
62419;SDS011;48460;51.616;5.426;2022-09-29T06:30:04;14.88;;;10.30;;
62419;SDS011;48460;51.616;5.426;2022-09-29T06:32:30;17.23;;;10.50;;
62419;SDS011;48460;51.616;5.426;2022-09-29T06:34:55;17.73;;;10.27;;
62419;SDS011;48460;51.616;5.426;2022-09-29T06:37:39;19.27;;;10.82;;
62419;SDS011;48460;51.616;5.426;2022-09-29T06:40:10;16.58;;;11.07;;
62419;SDS011;48460;51.616;5.426;2022-09-29T06:42:37;18.23;;;10.80;;
62419;SDS011;48460;51.616;5.426;2022-09-29T06:45:03;19.73;;;11.73;;
62419;SDS011;48460;51.616;5.426;2022-09-29T06:47:29;23.42;;;11.98;;
62419;SDS011;48460;51.616;5.426;2022-09-29T06:49:54;18.88;;;11.93;;
62419;SDS011;48460;51.616;5.426;2022-09-29T06:52:21;17.02;;;10.73;;
62419;SDS011;48460;51.616;5.426;2022-09-29T06:54:46;17.35;;;12.05;;
62419;SDS011;48460;51.616;5.426;2022-09-29T06:57:12;20.58;;;13.20;;
62419;SDS011;48460;51.616;5.426;2022-09-29T06:59:37;21.45;;;13.05;;
62419;SDS011;48460;51.616;5.426;2022-09-29T07:02:03;19.00;;;12.80;;
62419;SDS011;48460;51.616;5.426;2022-09-29T07:04:29;20.90;;;13.20;;
62419;SDS011;48460;51.616;5.426;2022-09-29T07:06:54;23.77;;;13.32;;
62419;SDS011;48460;51.616;5.426;2022-09-29T07:09:19;22.60;;;14.30;;
62419;SDS011;48460;51.616;5.426;2022-09-29T07:11:46;21.20;;;14.40;;
62419;SDS011;48460;51.616;5.426;2022-09-29T07:14:14;22.85;;;14.98;;
62419;SDS011;48460;51.616;5.426;2022-09-29T07:16:41;23.58;;;14.90;;
62419;SDS011;48460;51.616;5.426;2022-09-29T07:19:06;22.65;;;14.45;;
62419;SDS011;48460;51.616;5.426;2022-09-29T07:21:32;23.10;;;14.48;;
62419;SDS011;48460;51.616;5.426;2022-09-29T07:23:58;24.60;;;15.18;;
62419;SDS011;48460;51.616;5.426;2022-09-29T07:26:23;26.73;;;15.27;;
62419;SDS011;48460;51.616;5.426;2022-09-29T07:28:50;29.10;;;15.75;;
62419;SDS011;48460;51.616;5.426;2022-09-29T07:31:16;23.58;;;15.93;;
62419;SDS011;48460;51.616;5.426;2022-09-29T07:33:43;24.90;;;15.55;;
62419;SDS011;48460;51.616;5.426;2022-09-29T07:36:10;26.15;;;16.25;;
62419;SDS011;48460;51.616;5.426;2022-09-29T07:38:36;29.45;;;16.90;;
62419;SDS011;48460;51.616;5.426;2022-09-29T07:41:03;29.88;;;16.17;;
62419;SDS011;48460;51.616;5.426;2022-09-29T07:43:30;27.42;;;16.50;;
62419;SDS011;48460;51.616;5.426;2022-09-29T07:45:56;25.38;;;15.32;;
62419;SDS011;48460;51.616;5.426;2022-09-29T07:48:24;22.15;;;13.93;;
62419;SDS011;48460;51.616;5.426;2022-09-29T07:50:50;22.25;;;13.98;;
62419;SDS011;48460;51.616;5.426;2022-09-29T07:53:16;23.55;;;13.13;;
62419;SDS011;48460;51.616;5.426;2022-09-29T07:55:41;24.05;;;14.38;;
62419;SDS011;48460;51.616;5.426;2022-09-29T07:58:07;18.58;;;12.40;;
62419;SDS011;48460;51.616;5.426;2022-09-29T08:00:32;16.38;;;11.25;;
62419;SDS011;48460;51.616;5.426;2022-09-29T08:03:01;18.42;;;12.40;;
62419;SDS011;48460;51.616;5.426;2022-09-29T08:05:31;20.13;;;12.52;;
62419;SDS011;48460;51.616;5.426;2022-09-29T08:08:02;19.77;;;11.48;;
62419;SDS011;48460;51.616;5.426;2022-09-29T08:10:29;17.85;;;11.63;;
62419;SDS011;48460;51.616;5.426;2022-09-29T08:12:57;18.65;;;10.75;;
62419;SDS011;48460;51.616;5.426;2022-09-29T08:18:47;21.88;;;11.65;;
62419;SDS011;48460;51.616;5.426;2022-09-29T08:34:06;12.90;;;9.68;;
62419;SDS011;48460;51.616;5.426;2022-09-29T08:45:29;16.75;;;10.10;;
62419;SDS011;48460;51.616;5.426;2022-09-29T08:57:23;15.65;;;10.35;;
62419;SDS011;48460;51.616;5.426;2022-09-29T09:06:11;17.85;;;10.85;;
62419;SDS011;48460;51.616;5.426;2022-09-29T09:14:18;16.48;;;10.48;;
62419;SDS011;48460;51.616;5.426;2022-09-29T09:29:35;15.37;;;9.93;;
62419;SDS011;48460;51.616;5.426;2022-09-29T09:32:58;16.42;;;10.82;;
62419;SDS011;48460;51.616;5.426;2022-09-29T09:39:00;15.07;;;10.65;;
62419;SDS011;48460;51.616;5.426;2022-09-29T09:41:30;14.35;;;8.60;;
62419;SDS011;48460;51.616;5.426;2022-09-29T09:44:03;12.40;;;9.00;;
62419;SDS011;48460;51.616;5.426;2022-09-29T09:49:25;16.80;;;8.80;;
62419;SDS011;48460;51.616;5.426;2022-09-29T09:55:22;15.68;;;9.70;;
62419;SDS011;48460;51.616;5.426;2022-09-29T09:57:53;15.45;;;10.10;;
62419;SDS011;48460;51.616;5.426;2022-09-29T10:00:35;16.58;;;11.05;;
62419;SDS011;48460;51.616;5.426;2022-09-29T10:03:07;15.50;;;10.52;;
62419;SDS011;48460;51.616;5.426;2022-09-29T10:05:34;17.17;;;10.73;;
62419;SDS011;48460;51.616;5.426;2022-09-29T10:08:04;15.93;;;9.65;;
62419;SDS011;48460;51.616;5.426;2022-09-29T10:10:31;14.10;;;9.35;;
62419;SDS011;48460;51.616;5.426;2022-09-29T10:13:00;14.20;;;8.40;;
62419;SDS011;48460;51.616;5.426;2022-09-29T10:18:36;10.02;;;7.50;;
62419;SDS011;48460;51.616;5.426;2022-09-29T10:23:53;9.00;;;6.68;;
62419;SDS011;48460;51.616;5.426;2022-09-29T10:26:22;10.43;;;6.22;;
62419;SDS011;48460;51.616;5.426;2022-09-29T10:28:55;7.88;;;5.65;;
62419;SDS011;48460;51.616;5.426;2022-09-29T10:31:25;7.75;;;5.50;;
62419;SDS011;48460;51.616;5.426;2022-09-29T10:33:53;8.95;;;5.13;;
62419;SDS011;48460;51.616;5.426;2022-09-29T10:36:21;11.77;;;6.90;;
62419;SDS011;48460;51.616;5.426;2022-09-29T10:38:50;12.15;;;5.78;;
62419;SDS011;48460;51.616;5.426;2022-09-29T10:41:18;10.07;;;6.00;;
62419;SDS011;48460;51.616;5.426;2022-09-29T10:43:46;9.45;;;6.00;;
62419;SDS011;48460;51.616;5.426;2022-09-29T10:52:02;9.35;;;5.78;;
62419;SDS011;48460;51.616;5.426;2022-09-29T10:54:31;9.85;;;5.80;;
62419;SDS011;48460;51.616;5.426;2022-09-29T10:56:59;8.82;;;5.75;;
62419;SDS011;48460;51.616;5.426;2022-09-29T10:59:36;9.10;;;5.20;;
62419;SDS011;48460;51.616;5.426;2022-09-29T11:02:12;8.20;;;5.50;;
62419;SDS011;48460;51.616;5.426;2022-09-29T11:05:02;11.73;;;5.50;;
62419;SDS011;48460;51.616;5.426;2022-09-29T11:07:43;7.32;;;5.15;;
62419;SDS011;48460;51.616;5.426;2022-09-29T11:10:33;6.32;;;4.68;;
62419;SDS011;48460;51.616;5.426;2022-09-29T11:16:18;5.90;;;4.22;;
62419;SDS011;48460;51.616;5.426;2022-09-29T11:18:54;8.18;;;4.53;;
62419;SDS011;48460;51.616;5.426;2022-09-29T11:21:32;7.13;;;4.43;;
62419;SDS011;48460;51.616;5.426;2022-09-29T11:26:33;8.27;;;4.30;;
62419;SDS011;48460;51.616;5.426;2022-09-29T11:40:44;4.53;;;3.35;;
62419;SDS011;48460;51.616;5.426;2022-09-29T11:43:23;5.75;;;3.08;;
62419;SDS011;48460;51.616;5.426;2022-09-29T11:48:36;3.97;;;2.90;;
62419;SDS011;48460;51.616;5.426;2022-09-29T11:51:32;4.85;;;3.22;;
62419;SDS011;48460;51.616;5.426;2022-09-29T12:00:07;5.28;;;3.20;;
62419;SDS011;48460;51.616;5.426;2022-09-29T12:02:43;5.00;;;2.55;;
62419;SDS011;48460;51.616;5.426;2022-09-29T12:08:35;4.47;;;2.60;;
62419;SDS011;48460;51.616;5.426;2022-09-29T12:16:57;5.53;;;2.50;;
62419;SDS011;48460;51.616;5.426;2022-09-29T12:19:28;3.92;;;2.67;;
62419;SDS011;48460;51.616;5.426;2022-09-29T12:21:58;4.03;;;2.50;;
62419;SDS011;48460;51.616;5.426;2022-09-29T12:24:40;6.82;;;2.20;;
62419;SDS011;48460;51.616;5.426;2022-09-29T12:29:52;3.80;;;2.50;;
62419;SDS011;48460;51.616;5.426;2022-09-29T12:32:33;3.58;;;2.60;;
62419;SDS011;48460;51.616;5.426;2022-09-29T12:37:35;3.05;;;1.90;;
62419;SDS011;48460;51.616;5.426;2022-09-29T12:51:07;5.13;;;2.60;;
62419;SDS011;48460;51.616;5.426;2022-09-29T13:01:30;4.45;;;2.40;;
62419;SDS011;48460;51.616;5.426;2022-09-29T13:04:21;5.10;;;2.30;;
62419;SDS011;48460;51.616;5.426;2022-09-29T13:10:46;4.03;;;2.65;;
62419;SDS011;48460;51.616;5.426;2022-09-29T13:24:56;3.80;;;1.90;;
62419;SDS011;48460;51.616;5.426;2022-09-29T13:27:45;3.10;;;1.92;;
62419;SDS011;48460;51.616;5.426;2022-09-29T13:30:15;2.95;;;2.30;;
62419;SDS011;48460;51.616;5.426;2022-09-29T13:35:28;4.30;;;2.40;;
62419;SDS011;48460;51.616;5.426;2022-09-29T13:38:04;4.85;;;2.60;;
62419;SDS011;48460;51.616;5.426;2022-09-29T13:40:32;6.53;;;2.30;;
62419;SDS011;48460;51.616;5.426;2022-09-29T13:43:01;4.47;;;2.10;;
62419;SDS011;48460;51.616;5.426;2022-09-29T13:48:46;4.10;;;2.08;;
62419;SDS011;48460;51.616;5.426;2022-09-29T13:50:57;2.20;;;1.70;;
62419;SDS011;48460;51.616;5.426;2022-09-29T13:53:42;3.33;;;2.20;;
62419;SDS011;48460;51.616;5.426;2022-09-29T13:56:16;2.40;;;1.83;;
62419;SDS011;48460;51.616;5.426;2022-09-29T14:01:37;3.15;;;1.90;;
62419;SDS011;48460;51.616;5.426;2022-09-29T14:06:57;3.17;;;2.00;;
62419;SDS011;48460;51.616;5.426;2022-09-29T14:09:25;2.70;;;1.77;;
62419;SDS011;48460;51.616;5.426;2022-09-29T14:11:57;4.57;;;1.90;;
62419;SDS011;48460;51.616;5.426;2022-09-29T14:14:32;2.30;;;1.70;;
62419;SDS011;48460;51.616;5.426;2022-09-29T14:27:36;2.88;;;1.83;;
62419;SDS011;48460;51.616;5.426;2022-09-29T14:35:34;4.18;;;2.00;;
62419;SDS011;48460;51.616;5.426;2022-09-29T14:40:27;3.80;;;2.05;;
62419;SDS011;48460;51.616;5.426;2022-09-29T14:48:45;2.95;;;1.90;;
62419;SDS011;48460;51.616;5.426;2022-09-29T14:51:49;4.57;;;1.90;;
62419;SDS011;48460;51.616;5.426;2022-09-29T14:54:28;6.22;;;2.00;;
62419;SDS011;48460;51.616;5.426;2022-09-29T15:00:05;4.57;;;2.00;;
62419;SDS011;48460;51.616;5.426;2022-09-29T15:02:39;4.43;;;1.77;;
62419;SDS011;48460;51.616;5.426;2022-09-29T15:05:10;4.10;;;2.10;;
62419;SDS011;48460;51.616;5.426;2022-09-29T15:08:00;3.70;;;1.90;;
62419;SDS011;48460;51.616;5.426;2022-09-29T15:10:45;4.30;;;1.90;;
62419;SDS011;48460;51.616;5.426;2022-09-29T15:13:24;2.80;;;1.85;;
62419;SDS011;48460;51.616;5.426;2022-09-29T15:15:57;2.38;;;1.67;;
62419;SDS011;48460;51.616;5.426;2022-09-29T15:21:36;4.28;;;2.10;;
62419;SDS011;48460;51.616;5.426;2022-09-29T15:24:19;4.22;;;2.17;;
62419;SDS011;48460;51.616;5.426;2022-09-29T15:27:03;2.70;;;2.08;;
62419;SDS011;48460;51.616;5.426;2022-09-29T15:29:36;4.45;;;2.40;;
62419;SDS011;48460;51.616;5.426;2022-09-29T15:32:02;5.63;;;2.83;;
62419;SDS011;48460;51.616;5.426;2022-09-29T15:34:29;3.80;;;2.55;;
62419;SDS011;48460;51.616;5.426;2022-09-29T15:36:55;4.93;;;2.38;;
62419;SDS011;48460;51.616;5.426;2022-09-29T15:42:01;3.15;;;2.10;;
62419;SDS011;48460;51.616;5.426;2022-09-29T15:44:36;10.60;;;4.22;;
62419;SDS011;48460;51.616;5.426;2022-09-29T15:47:01;7.13;;;3.50;;
62419;SDS011;48460;51.616;5.426;2022-09-29T15:49:27;5.25;;;3.33;;
62419;SDS011;48460;51.616;5.426;2022-09-29T15:51:57;9.70;;;3.65;;
62419;SDS011;48460;51.616;5.426;2022-09-29T15:54:23;8.30;;;3.72;;
62419;SDS011;48460;51.616;5.426;2022-09-29T15:56:52;6.82;;;3.88;;
62419;SDS011;48460;51.616;5.426;2022-09-29T16:02:34;6.97;;;3.20;;
62419;SDS011;48460;51.616;5.426;2022-09-29T16:05:08;6.25;;;3.80;;
62419;SDS011;48460;51.616;5.426;2022-09-29T16:07:38;8.00;;;4.30;;
62419;SDS011;48460;51.616;5.426;2022-09-29T16:10:13;7.43;;;4.32;;
62419;SDS011;48460;51.616;5.426;2022-09-29T16:12:45;7.50;;;3.95;;
62419;SDS011;48460;51.616;5.426;2022-09-29T16:15:47;7.93;;;3.97;;
62419;SDS011;48460;51.616;5.426;2022-09-29T16:18:14;5.85;;;3.88;;
62419;SDS011;48460;51.616;5.426;2022-09-29T16:20:44;7.93;;;4.25;;
62419;SDS011;48460;51.616;5.426;2022-09-29T16:28:31;9.45;;;4.55;;
62419;SDS011;48460;51.616;5.426;2022-09-29T16:31:02;8.43;;;5.18;;
62419;SDS011;48460;51.616;5.426;2022-09-29T16:33:31;7.78;;;4.78;;
62419;SDS011;48460;51.616;5.426;2022-09-29T16:38:44;8.18;;;4.20;;
62419;SDS011;48460;51.616;5.426;2022-09-29T16:49:21;7.20;;;3.38;;
62419;SDS011;48460;51.616;5.426;2022-09-29T16:51:48;4.90;;;2.95;;
62419;SDS011;48460;51.616;5.426;2022-09-29T16:54:15;6.45;;;3.20;;
62419;SDS011;48460;51.616;5.426;2022-09-29T16:56:48;6.05;;;2.92;;
62419;SDS011;48460;51.616;5.426;2022-09-29T16:59:32;8.15;;;3.67;;
62419;SDS011;48460;51.616;5.426;2022-09-29T17:02:00;6.43;;;3.80;;
62419;SDS011;48460;51.616;5.426;2022-09-29T17:04:26;5.47;;;3.58;;
62419;SDS011;48460;51.616;5.426;2022-09-29T17:06:51;8.75;;;3.90;;
62419;SDS011;48460;51.616;5.426;2022-09-29T17:09:18;5.43;;;3.50;;
62419;SDS011;48460;51.616;5.426;2022-09-29T17:11:48;7.22;;;3.55;;
62419;SDS011;48460;51.616;5.426;2022-09-29T17:14:14;6.10;;;3.65;;
62419;SDS011;48460;51.616;5.426;2022-09-29T17:16:42;5.72;;;3.08;;
62419;SDS011;48460;51.616;5.426;2022-09-29T17:19:08;5.53;;;3.45;;
62419;SDS011;48460;51.616;5.426;2022-09-29T17:21:35;4.97;;;3.50;;
62419;SDS011;48460;51.616;5.426;2022-09-29T17:24:00;7.95;;;3.75;;
62419;SDS011;48460;51.616;5.426;2022-09-29T17:26:45;7.95;;;3.50;;
62419;SDS011;48460;51.616;5.426;2022-09-29T17:29:30;6.00;;;3.90;;
62419;SDS011;48460;51.616;5.426;2022-09-29T17:31:56;6.85;;;3.58;;
62419;SDS011;48460;51.616;5.426;2022-09-29T17:34:21;6.47;;;3.58;;
62419;SDS011;48460;51.616;5.426;2022-09-29T17:36:52;8.18;;;4.03;;
62419;SDS011;48460;51.616;5.426;2022-09-29T17:39:19;7.10;;;3.50;;
62419;SDS011;48460;51.616;5.426;2022-09-29T17:41:44;7.75;;;3.92;;
62419;SDS011;48460;51.616;5.426;2022-09-29T17:44:11;5.63;;;4.15;;
62419;SDS011;48460;51.616;5.426;2022-09-29T17:46:37;7.57;;;4.47;;
62419;SDS011;48460;51.616;5.426;2022-09-29T17:49:02;6.75;;;4.55;;
62419;SDS011;48460;51.616;5.426;2022-09-29T17:51:28;8.48;;;4.43;;
62419;SDS011;48460;51.616;5.426;2022-09-29T17:53:53;7.70;;;4.22;;
62419;SDS011;48460;51.616;5.426;2022-09-29T17:56:22;6.55;;;4.30;;
62419;SDS011;48460;51.616;5.426;2022-09-29T17:58:56;11.10;;;4.40;;
62419;SDS011;48460;51.616;5.426;2022-09-29T18:01:27;6.00;;;3.90;;
62419;SDS011;48460;51.616;5.426;2022-09-29T18:03:53;4.75;;;3.60;;
62419;SDS011;48460;51.616;5.426;2022-09-29T18:06:21;5.47;;;4.00;;
62419;SDS011;48460;51.616;5.426;2022-09-29T18:08:49;7.00;;;4.35;;
62419;SDS011;48460;51.616;5.426;2022-09-29T18:11:19;8.43;;;4.82;;
62419;SDS011;48460;51.616;5.426;2022-09-29T18:13:46;7.93;;;4.90;;
62419;SDS011;48460;51.616;5.426;2022-09-29T18:16:17;10.18;;;5.70;;
62419;SDS011;48460;51.616;5.426;2022-09-29T18:18:44;7.95;;;5.38;;
62419;SDS011;48460;51.616;5.426;2022-09-29T18:21:11;6.97;;;5.50;;
62419;SDS011;48460;51.616;5.426;2022-09-29T18:23:36;9.95;;;5.53;;
62419;SDS011;48460;51.616;5.426;2022-09-29T18:26:05;11.57;;;5.20;;
62419;SDS011;48460;51.616;5.426;2022-09-29T18:28:35;10.45;;;4.70;;
62419;SDS011;48460;51.616;5.426;2022-09-29T18:31:05;7.28;;;4.75;;
62419;SDS011;48460;51.616;5.426;2022-09-29T18:33:36;7.63;;;5.00;;
62419;SDS011;48460;51.616;5.426;2022-09-29T18:36:02;8.52;;;5.88;;
62419;SDS011;48460;51.616;5.426;2022-09-29T18:38:27;8.02;;;5.78;;
62419;SDS011;48460;51.616;5.426;2022-09-29T18:40:54;8.18;;;5.10;;
62419;SDS011;48460;51.616;5.426;2022-09-29T18:43:20;8.88;;;5.10;;
62419;SDS011;48460;51.616;5.426;2022-09-29T18:45:49;9.82;;;5.35;;
62419;SDS011;48460;51.616;5.426;2022-09-29T18:48:17;8.93;;;5.10;;
62419;SDS011;48460;51.616;5.426;2022-09-29T18:50:44;7.03;;;4.45;;
62419;SDS011;48460;51.616;5.426;2022-09-29T18:53:12;8.07;;;4.85;;
62419;SDS011;48460;51.616;5.426;2022-09-29T18:55:40;13.13;;;4.55;;
62419;SDS011;48460;51.616;5.426;2022-09-29T18:58:06;5.82;;;4.60;;
62419;SDS011;48460;51.616;5.426;2022-09-29T19:00:40;8.55;;;5.20;;
62419;SDS011;48460;51.616;5.426;2022-09-29T19:03:08;8.00;;;4.45;;
62419;SDS011;48460;51.616;5.426;2022-09-29T19:05:34;5.32;;;4.30;;
62419;SDS011;48460;51.616;5.426;2022-09-29T19:08:03;9.82;;;4.18;;
62419;SDS011;48460;51.616;5.426;2022-09-29T19:10:33;6.25;;;4.32;;
62419;SDS011;48460;51.616;5.426;2022-09-29T19:13:01;6.18;;;4.18;;
62419;SDS011;48460;51.616;5.426;2022-09-29T19:15:28;5.47;;;4.57;;
62419;SDS011;48460;51.616;5.426;2022-09-29T19:17:55;12.02;;;6.55;;
62419;SDS011;48460;51.616;5.426;2022-09-29T19:20:24;10.15;;;5.88;;
62419;SDS011;48460;51.616;5.426;2022-09-29T19:22:54;7.90;;;5.18;;
62419;SDS011;48460;51.616;5.426;2022-09-29T19:25:40;6.97;;;4.85;;
62419;SDS011;48460;51.616;5.426;2022-09-29T19:28:05;8.93;;;5.60;;
62419;SDS011;48460;51.616;5.426;2022-09-29T19:30:38;9.82;;;5.93;;
62419;SDS011;48460;51.616;5.426;2022-09-29T19:33:06;9.93;;;6.90;;
62419;SDS011;48460;51.616;5.426;2022-09-29T19:35:33;10.45;;;5.55;;
62419;SDS011;48460;51.616;5.426;2022-09-29T19:38:00;8.18;;;6.35;;
62419;SDS011;48460;51.616;5.426;2022-09-29T19:40:27;9.00;;;6.00;;
62419;SDS011;48460;51.616;5.426;2022-09-29T19:42:58;8.13;;;5.40;;
62419;SDS011;48460;51.616;5.426;2022-09-29T19:45:26;7.85;;;5.13;;